Portada
METAR-TAF:

METAR-TAF

Aeroports :

Hyderabad, Índia

latitud: 17-27N, longitud: 078-28E, altitud: 530 m

Observació

L'informe es va fer fa 5 hores i 44 minuts, a les 16:00 UTC
Vent 2 kt amb direcció variable
Temperatura 23°C
Humitat 69%
Pressió 1018 hPa
Visibilitat: 5000 m
Escasses núvols a una alçada de 1500 ft
Núvols disperses a una alçada de 10000 ft
calitja

METAR: VOHY 241600Z VRB02KT 5000 HZ FEW015 SCT100 23/17 Q1018 NOSIG

Hora: 03:14 (21:44 UTC)

Pronòstic

L'informe es va fer fa 10 hores i 44 minuts, a les 11:00 UTC
Pronòstic vàlid del 24 a les 12 UTC al 24 a les 21 UTC
Vent 6 kt del Nord-Oest
Visibilitat: 5000 m
Núvols disperses a una alçada de 1500 ft
calitja, boirina

TAF: VOHY 241100Z 2412/2421 32006KT 5000 HZ BR SCT015

Observacions i pronòstics meteorològics de més de 4000 aeroports (METAR i TAF).

Les estacions disponibles són els punts grocs i vermells al mapa.

Posi el ratolí al punt desitjat per veure el nom de l'estació.

Feu clic per veure les observacions i els pronòstics meteorològics.

Per canviar el mapa: feu clic els botons verds amb una creu de color negre per apropar; al botó verd amb un guió per allunyar la imatge; o en les fletxes verdes per a mapes adjacents.


METAR-TAF: